sensor_id;sensor_type;location;lat;lon;timestamp;P1;durP1;ratioP1;P2;durP2;ratioP2
18210;SDS011;9231;48.852;9.882;2022-08-21T08:09:50;395.30;;;222.00;;
18210;SDS011;9231;48.852;9.882;2022-08-21T08:26:56;443.20;;;395.00;;
18210;SDS011;9231;48.852;9.882;2022-08-21T08:36:49;443.60;;;395.40;;
18210;SDS011;9231;48.852;9.882;2022-08-21T08:39:15;462.83;;;414.33;;
18210;SDS011;9231;48.852;9.882;2022-08-21T08:41:42;465.57;;;416.87;;
18210;SDS011;9231;48.852;9.882;2022-08-21T08:44:10;457.83;;;409.83;;
18210;SDS011;9231;48.852;9.882;2022-08-21T08:46:39;458.03;;;409.67;;
18210;SDS011;9231;48.852;9.882;2022-08-21T08:49:09;480.00;;;431.03;;
18210;SDS011;9231;48.852;9.882;2022-08-21T08:51:39;421.60;;;357.60;;
18210;SDS011;9231;48.852;9.882;2022-08-21T08:54:07;440.00;;;392.30;;
18210;SDS011;9231;48.852;9.882;2022-08-21T08:56:35;459.87;;;411.40;;
18210;SDS011;9231;48.852;9.882;2022-08-21T08:59:05;461.67;;;413.30;;
18210;SDS011;9231;48.852;9.882;2022-08-21T09:01:34;438.67;;;390.40;;
18210;SDS011;9231;48.852;9.882;2022-08-21T09:04:01;500.10;;;449.90;;
18210;SDS011;9231;48.852;9.882;2022-08-21T09:06:31;1170.63;;;999.90;;
18210;SDS011;9231;48.852;9.882;2022-08-21T09:09:02;781.77;;;723.23;;
18210;SDS011;9231;48.852;9.882;2022-08-21T09:11:35;651.80;;;597.50;;
18210;SDS011;9231;48.852;9.882;2022-08-21T09:14:05;619.37;;;565.73;;
18210;SDS011;9231;48.852;9.882;2022-08-21T09:16:36;623.40;;;569.40;;
18210;SDS011;9231;48.852;9.882;2022-08-21T09:19:07;635.70;;;581.50;;
18210;SDS011;9231;48.852;9.882;2022-08-21T09:21:38;644.87;;;590.33;;
18210;SDS011;9231;48.852;9.882;2022-08-21T09:24:12;656.10;;;601.93;;
18210;SDS011;9231;48.852;9.882;2022-08-21T09:26:44;662.03;;;607.03;;
18210;SDS011;9231;48.852;9.882;2022-08-21T09:29:13;658.10;;;603.53;;
18210;SDS011;9231;48.852;9.882;2022-08-21T09:31:44;614.90;;;560.63;;
18210;SDS011;9231;48.852;9.882;2022-08-21T09:34:11;622.77;;;569.37;;
18210;SDS011;9231;48.852;9.882;2022-08-21T09:36:39;621.80;;;568.27;;
18210;SDS011;9231;48.852;9.882;2022-08-21T09:39:06;623.10;;;569.43;;
18210;SDS011;9231;48.852;9.882;2022-08-21T09:41:34;603.03;;;550.27;;
18210;SDS011;9231;48.852;9.882;2022-08-21T09:44:02;613.70;;;560.60;;
18210;SDS011;9231;48.852;9.882;2022-08-21T09:46:28;603.73;;;550.87;;
18210;SDS011;9231;48.852;9.882;2022-08-21T09:48:57;575.27;;;523.20;;
18210;SDS011;9231;48.852;9.882;2022-08-21T09:51:26;570.17;;;517.77;;
18210;SDS011;9231;48.852;9.882;2022-08-21T09:54:12;594.47;;;541.43;;
18210;SDS011;9231;48.852;9.882;2022-08-21T09:56:50;610.27;;;556.80;;
18210;SDS011;9231;48.852;9.882;2022-08-21T09:59:35;572.70;;;520.23;;
18210;SDS011;9231;48.852;9.882;2022-08-21T10:02:14;584.60;;;532.13;;
18210;SDS011;9231;48.852;9.882;2022-08-21T10:04:50;586.53;;;534.20;;
18210;SDS011;9231;48.852;9.882;2022-08-21T10:07:19;593.00;;;540.37;;
18210;SDS011;9231;48.852;9.882;2022-08-21T10:09:46;600.60;;;548.10;;
18210;SDS011;9231;48.852;9.882;2022-08-21T10:12:13;578.63;;;526.37;;
18210;SDS011;9231;48.852;9.882;2022-08-21T10:14:44;584.70;;;532.43;;
18210;SDS011;9231;48.852;9.882;2022-08-21T10:17:14;599.40;;;546.87;;
18210;SDS011;9231;48.852;9.882;2022-08-21T10:19:43;601.97;;;549.47;;
18210;SDS011;9231;48.852;9.882;2022-08-21T10:22:16;609.30;;;556.47;;
18210;SDS011;9231;48.852;9.882;2022-08-21T10:24:50;608.93;;;556.40;;
18210;SDS011;9231;48.852;9.882;2022-08-21T10:27:20;593.87;;;542.00;;
18210;SDS011;9231;48.852;9.882;2022-08-21T10:29:51;609.97;;;557.23;;
18210;SDS011;9231;48.852;9.882;2022-08-21T10:32:31;600.60;;;547.60;;
18210;SDS011;9231;48.852;9.882;2022-08-21T10:35:02;600.37;;;547.93;;
18210;SDS011;9231;48.852;9.882;2022-08-21T10:37:37;605.77;;;553.07;;
18210;SDS011;9231;48.852;9.882;2022-08-21T10:40:08;613.90;;;561.40;;
18210;SDS011;9231;48.852;9.882;2022-08-21T10:42:47;604.63;;;551.87;;
18210;SDS011;9231;48.852;9.882;2022-08-21T10:45:18;625.03;;;571.50;;
18210;SDS011;9231;48.852;9.882;2022-08-21T10:47:50;607.70;;;554.63;;
18210;SDS011;9231;48.852;9.882;2022-08-21T10:50:23;610.17;;;556.97;;
18210;SDS011;9231;48.852;9.882;2022-08-21T10:52:59;604.67;;;551.90;;
18210;SDS011;9231;48.852;9.882;2022-08-21T10:55:31;616.63;;;563.43;;
18210;SDS011;9231;48.852;9.882;2022-08-21T10:57:59;606.03;;;553.00;;
18210;SDS011;9231;48.852;9.882;2022-08-21T11:00:28;618.00;;;565.50;;
18210;SDS011;9231;48.852;9.882;2022-08-21T11:02:57;627.73;;;574.37;;
18210;SDS011;9231;48.852;9.882;2022-08-21T11:05:25;608.97;;;556.70;;
18210;SDS011;9231;48.852;9.882;2022-08-21T11:07:55;596.80;;;544.13;;
18210;SDS011;9231;48.852;9.882;2022-08-21T11:10:25;606.40;;;553.40;;
18210;SDS011;9231;48.852;9.882;2022-08-21T11:12:53;608.07;;;555.50;;
18210;SDS011;9231;48.852;9.882;2022-08-21T11:15:26;615.97;;;562.87;;
18210;SDS011;9231;48.852;9.882;2022-08-21T11:17:57;646.20;;;592.33;;
18210;SDS011;9231;48.852;9.882;2022-08-21T11:20:28;615.40;;;562.27;;
18210;SDS011;9231;48.852;9.882;2022-08-21T11:22:56;637.00;;;583.03;;
18210;SDS011;9231;48.852;9.882;2022-08-21T11:25:27;634.30;;;580.73;;
18210;SDS011;9231;48.852;9.882;2022-08-21T11:27:56;632.53;;;579.10;;
18210;SDS011;9231;48.852;9.882;2022-08-21T11:30:26;628.80;;;575.17;;
18210;SDS011;9231;48.852;9.882;2022-08-21T11:33:02;637.33;;;583.93;;
18210;SDS011;9231;48.852;9.882;2022-08-21T11:35:34;615.73;;;562.73;;
18210;SDS011;9231;48.852;9.882;2022-08-21T11:38:08;632.50;;;579.17;;
18210;SDS011;9231;48.852;9.882;2022-08-21T11:40:43;658.07;;;603.57;;
18210;SDS011;9231;48.852;9.882;2022-08-21T11:43:12;634.43;;;581.00;;
18210;SDS011;9231;48.852;9.882;2022-08-21T11:45:43;660.37;;;606.23;;
18210;SDS011;9231;48.852;9.882;2022-08-21T11:48:12;632.33;;;579.00;;
18210;SDS011;9231;48.852;9.882;2022-08-21T11:50:44;644.70;;;590.97;;
18210;SDS011;9231;48.852;9.882;2022-08-21T11:53:12;635.53;;;582.10;;
18210;SDS011;9231;48.852;9.882;2022-08-21T11:55:43;634.57;;;581.13;;
18210;SDS011;9231;48.852;9.882;2022-08-21T11:58:11;643.43;;;589.73;;
18210;SDS011;9231;48.852;9.882;2022-08-21T12:00:42;646.10;;;592.13;;
18210;SDS011;9231;48.852;9.882;2022-08-21T12:03:09;661.43;;;607.23;;
18210;SDS011;9231;48.852;9.882;2022-08-21T12:05:38;640.10;;;586.53;;
18210;SDS011;9231;48.852;9.882;2022-08-21T12:08:06;638.93;;;585.37;;
18210;SDS011;9231;48.852;9.882;2022-08-21T12:10:38;651.90;;;597.93;;
18210;SDS011;9231;48.852;9.882;2022-08-21T12:13:07;629.30;;;576.57;;
18210;SDS011;9231;48.852;9.882;2022-08-21T12:15:36;647.37;;;593.67;;
18210;SDS011;9231;48.852;9.882;2022-08-21T12:18:04;637.20;;;584.00;;
18210;SDS011;9231;48.852;9.882;2022-08-21T12:20:41;654.67;;;600.57;;
18210;SDS011;9231;48.852;9.882;2022-08-21T12:23:16;630.33;;;577.27;;
18210;SDS011;9231;48.852;9.882;2022-08-21T12:25:43;628.37;;;575.97;;
18210;SDS011;9231;48.852;9.882;2022-08-21T12:28:12;660.37;;;606.40;;
18210;SDS011;9231;48.852;9.882;2022-08-21T12:30:41;634.37;;;581.27;;
18210;SDS011;9231;48.852;9.882;2022-08-21T12:33:18;652.03;;;598.30;;
18210;SDS011;9231;48.852;9.882;2022-08-21T12:35:45;627.87;;;575.40;;
18210;SDS011;9231;48.852;9.882;2022-08-21T12:38:15;656.13;;;603.27;;
18210;SDS011;9231;48.852;9.882;2022-08-21T12:40:43;684.90;;;630.10;;
18210;SDS011;9231;48.852;9.882;2022-08-21T12:43:13;644.13;;;590.77;;
18210;SDS011;9231;48.852;9.882;2022-08-21T12:45:42;667.23;;;612.90;;
18210;SDS011;9231;48.852;9.882;2022-08-21T12:48:10;722.27;;;666.63;;
18210;SDS011;9231;48.852;9.882;2022-08-21T12:50:40;731.83;;;675.37;;
18210;SDS011;9231;48.852;9.882;2022-08-21T12:53:07;740.90;;;684.53;;
18210;SDS011;9231;48.852;9.882;2022-08-21T12:55:38;710.17;;;654.63;;
18210;SDS011;9231;48.852;9.882;2022-08-21T12:58:06;719.17;;;663.53;;
18210;SDS011;9231;48.852;9.882;2022-08-21T13:00:34;725.97;;;669.70;;
18210;SDS011;9231;48.852;9.882;2022-08-21T13:03:00;733.07;;;677.50;;
18210;SDS011;9231;48.852;9.882;2022-08-21T13:05:28;713.43;;;658.13;;
18210;SDS011;9231;48.852;9.882;2022-08-21T13:10:22;950.07;;;883.97;;
18210;SDS011;9231;48.852;9.882;2022-08-21T13:12:50;810.80;;;752.77;;
18210;SDS011;9231;48.852;9.882;2022-08-21T13:15:22;835.90;;;777.70;;
18210;SDS011;9231;48.852;9.882;2022-08-21T13:17:50;890.43;;;829.03;;
18210;SDS011;9231;48.852;9.882;2022-08-21T13:20:19;941.47;;;879.00;;
18210;SDS011;9231;48.852;9.882;2022-08-21T13:22:47;949.77;;;886.90;;
18210;SDS011;9231;48.852;9.882;2022-08-21T13:25:14;964.73;;;900.90;;
18210;SDS011;9231;48.852;9.882;2022-08-21T13:27:41;1078.13;;;999.90;;
18210;SDS011;9231;48.852;9.882;2022-08-21T13:30:10;1058.33;;;988.97;;
18210;SDS011;9231;48.852;9.882;2022-08-21T13:32:39;1036.53;;;968.87;;
18210;SDS011;9231;48.852;9.882;2022-08-21T13:35:13;1056.77;;;988.20;;
18210;SDS011;9231;48.852;9.882;2022-08-21T13:37:40;1048.00;;;980.10;;
18210;SDS011;9231;48.852;9.882;2022-08-21T13:40:09;1078.93;;;999.90;;
18210;SDS011;9231;48.852;9.882;2022-08-21T13:42:38;1124.33;;;999.90;;
18210;SDS011;9231;48.852;9.882;2022-08-21T13:45:10;1113.20;;;999.90;;
18210;SDS011;9231;48.852;9.882;2022-08-21T13:47:37;1192.27;;;999.90;;
18210;SDS011;9231;48.852;9.882;2022-08-21T13:50:12;1142.10;;;999.90;;
18210;SDS011;9231;48.852;9.882;2022-08-21T13:52:46;1123.20;;;999.90;;
18210;SDS011;9231;48.852;9.882;2022-08-21T13:55:13;1110.43;;;999.90;;
18210;SDS011;9231;48.852;9.882;2022-08-21T13:57:42;1109.57;;;999.90;;
18210;SDS011;9231;48.852;9.882;2022-08-21T14:00:12;1118.30;;;999.90;;
18210;SDS011;9231;48.852;9.882;2022-08-21T14:02:40;1126.03;;;999.90;;
18210;SDS011;9231;48.852;9.882;2022-08-21T14:05:07;1130.83;;;999.90;;
18210;SDS011;9231;48.852;9.882;2022-08-21T14:07:42;1132.27;;;999.90;;
18210;SDS011;9231;48.852;9.882;2022-08-21T14:10:11;1110.63;;;999.90;;
18210;SDS011;9231;48.852;9.882;2022-08-21T14:12:40;1119.90;;;999.90;;
18210;SDS011;9231;48.852;9.882;2022-08-21T14:15:08;1118.87;;;999.90;;
18210;SDS011;9231;48.852;9.882;2022-08-21T14:17:35;1135.23;;;999.90;;
18210;SDS011;9231;48.852;9.882;2022-08-21T14:20:03;1143.60;;;999.90;;
18210;SDS011;9231;48.852;9.882;2022-08-21T14:22:30;1160.07;;;999.90;;
18210;SDS011;9231;48.852;9.882;2022-08-21T14:25:03;1138.50;;;999.90;;
18210;SDS011;9231;48.852;9.882;2022-08-21T14:27:31;1141.23;;;999.90;;
18210;SDS011;9231;48.852;9.882;2022-08-21T14:29:58;1154.33;;;999.90;;
18210;SDS011;9231;48.852;9.882;2022-08-21T14:32:26;1135.97;;;999.90;;
18210;SDS011;9231;48.852;9.882;2022-08-21T14:34:54;1127.30;;;999.90;;
18210;SDS011;9231;48.852;9.882;2022-08-21T14:37:21;1127.73;;;999.90;;
18210;SDS011;9231;48.852;9.882;2022-08-21T14:39:47;1149.07;;;999.90;;
18210;SDS011;9231;48.852;9.882;2022-08-21T14:42:15;1195.00;;;999.90;;
18210;SDS011;9231;48.852;9.882;2022-08-21T14:44:41;1179.53;;;999.90;;
18210;SDS011;9231;48.852;9.882;2022-08-21T14:47:08;1203.53;;;999.90;;
18210;SDS011;9231;48.852;9.882;2022-08-21T14:49:35;1204.47;;;999.90;;
18210;SDS011;9231;48.852;9.882;2022-08-21T14:52:02;1198.93;;;999.90;;
18210;SDS011;9231;48.852;9.882;2022-08-21T14:54:29;1149.43;;;999.90;;
18210;SDS011;9231;48.852;9.882;2022-08-21T14:56:56;1164.33;;;999.90;;
18210;SDS011;9231;48.852;9.882;2022-08-21T14:59:24;1179.03;;;999.90;;
18210;SDS011;9231;48.852;9.882;2022-08-21T15:01:50;1172.33;;;999.90;;
18210;SDS011;9231;48.852;9.882;2022-08-21T15:04:17;1111.53;;;999.90;;
18210;SDS011;9231;48.852;9.882;2022-08-21T15:06:43;1123.60;;;999.90;;
18210;SDS011;9231;48.852;9.882;2022-08-21T15:09:10;1132.27;;;999.90;;
18210;SDS011;9231;48.852;9.882;2022-08-21T15:11:36;1141.07;;;999.90;;
18210;SDS011;9231;48.852;9.882;2022-08-21T15:14:03;1142.67;;;999.90;;
18210;SDS011;9231;48.852;9.882;2022-08-21T15:16:33;1134.40;;;999.90;;
18210;SDS011;9231;48.852;9.882;2022-08-21T15:18:59;1136.93;;;999.90;;
18210;SDS011;9231;48.852;9.882;2022-08-21T15:21:26;1135.47;;;999.90;;
18210;SDS011;9231;48.852;9.882;2022-08-21T15:23:52;1134.97;;;999.90;;
18210;SDS011;9231;48.852;9.882;2022-08-21T15:26:19;1134.50;;;999.90;;
18210;SDS011;9231;48.852;9.882;2022-08-21T15:28:49;1132.70;;;999.90;;
18210;SDS011;9231;48.852;9.882;2022-08-21T15:31:15;1131.47;;;999.90;;
18210;SDS011;9231;48.852;9.882;2022-08-21T15:33:43;1087.27;;;999.90;;
18210;SDS011;9231;48.852;9.882;2022-08-21T15:36:10;1076.43;;;999.67;;
18210;SDS011;9231;48.852;9.882;2022-08-21T15:38:36;1125.00;;;999.90;;
18210;SDS011;9231;48.852;9.882;2022-08-21T15:41:02;1106.33;;;999.90;;
18210;SDS011;9231;48.852;9.882;2022-08-21T15:43:30;1099.40;;;999.90;;
18210;SDS011;9231;48.852;9.882;2022-08-21T15:45:57;1090.73;;;999.90;;
18210;SDS011;9231;48.852;9.882;2022-08-21T15:48:24;1031.30;;;966.33;;
18210;SDS011;9231;48.852;9.882;2022-08-21T15:50:52;1095.40;;;999.90;;
18210;SDS011;9231;48.852;9.882;2022-08-21T15:53:18;1043.00;;;977.47;;
18210;SDS011;9231;48.852;9.882;2022-08-21T15:55:45;1074.40;;;998.73;;
18210;SDS011;9231;48.852;9.882;2022-08-21T15:58:14;1131.23;;;999.90;;
18210;SDS011;9231;48.852;9.882;2022-08-21T16:00:44;1143.93;;;999.90;;
18210;SDS011;9231;48.852;9.882;2022-08-21T16:03:14;1139.03;;;999.90;;
18210;SDS011;9231;48.852;9.882;2022-08-21T16:05:41;1151.60;;;999.90;;
18210;SDS011;9231;48.852;9.882;2022-08-21T16:08:09;1145.07;;;999.90;;
18210;SDS011;9231;48.852;9.882;2022-08-21T16:10:37;1147.60;;;999.90;;
18210;SDS011;9231;48.852;9.882;2022-08-21T16:13:05;1147.67;;;999.90;;
18210;SDS011;9231;48.852;9.882;2022-08-21T16:15:32;1155.30;;;999.90;;
18210;SDS011;9231;48.852;9.882;2022-08-21T16:17:58;1151.70;;;999.90;;
18210;SDS011;9231;48.852;9.882;2022-08-21T16:20:26;1135.53;;;999.90;;
18210;SDS011;9231;48.852;9.882;2022-08-21T16:22:53;1128.13;;;999.90;;
18210;SDS011;9231;48.852;9.882;2022-08-21T16:25:31;1133.67;;;999.90;;
18210;SDS011;9231;48.852;9.882;2022-08-21T16:28:02;1109.00;;;999.90;;
18210;SDS011;9231;48.852;9.882;2022-08-21T16:30:29;1115.87;;;999.90;;
18210;SDS011;9231;48.852;9.882;2022-08-21T16:32:55;1089.77;;;999.90;;
18210;SDS011;9231;48.852;9.882;2022-08-21T16:35:22;1084.60;;;999.90;;
18210;SDS011;9231;48.852;9.882;2022-08-21T16:37:49;1096.97;;;999.90;;
18210;SDS011;9231;48.852;9.882;2022-08-21T16:40:16;1085.70;;;999.90;;
18210;SDS011;9231;48.852;9.882;2022-08-21T16:42:43;1063.77;;;991.67;;
18210;SDS011;9231;48.852;9.882;2022-08-21T16:45:11;1065.27;;;992.67;;
18210;SDS011;9231;48.852;9.882;2022-08-21T16:47:37;1056.63;;;984.33;;
18210;SDS011;9231;48.852;9.882;2022-08-21T16:50:04;1048.87;;;977.23;;
18210;SDS011;9231;48.852;9.882;2022-08-21T16:52:31;1042.57;;;971.63;;
18210;SDS011;9231;48.852;9.882;2022-08-21T16:54:58;1048.57;;;977.03;;
18210;SDS011;9231;48.852;9.882;2022-08-21T16:57:26;1064.17;;;991.07;;
18210;SDS011;9231;48.852;9.882;2022-08-21T16:59:54;1049.13;;;977.30;;
18210;SDS011;9231;48.852;9.882;2022-08-21T17:02:24;1052.27;;;980.53;;
18210;SDS011;9231;48.852;9.882;2022-08-21T17:04:51;1054.10;;;981.80;;
18210;SDS011;9231;48.852;9.882;2022-08-21T17:07:18;1057.23;;;985.33;;
18210;SDS011;9231;48.852;9.882;2022-08-21T17:09:44;1058.43;;;986.50;;
18210;SDS011;9231;48.852;9.882;2022-08-21T17:12:11;1037.53;;;966.63;;
18210;SDS011;9231;48.852;9.882;2022-08-21T17:14:37;1040.37;;;969.03;;
18210;SDS011;9231;48.852;9.882;2022-08-21T17:17:05;1040.70;;;969.47;;
18210;SDS011;9231;48.852;9.882;2022-08-21T17:19:33;1025.23;;;955.10;;
18210;SDS011;9231;48.852;9.882;2022-08-21T17:21:59;1036.07;;;965.00;;
18210;SDS011;9231;48.852;9.882;2022-08-21T17:24:26;1021.47;;;951.37;;
18210;SDS011;9231;48.852;9.882;2022-08-21T17:26:52;1038.43;;;966.87;;
18210;SDS011;9231;48.852;9.882;2022-08-21T17:29:27;1033.83;;;962.87;;
18210;SDS011;9231;48.852;9.882;2022-08-21T17:31:55;1040.47;;;968.87;;
18210;SDS011;9231;48.852;9.882;2022-08-21T17:34:23;1045.00;;;973.27;;
18210;SDS011;9231;48.852;9.882;2022-08-21T17:36:50;1032.60;;;961.50;;
18210;SDS011;9231;48.852;9.882;2022-08-21T17:39:17;1060.57;;;987.97;;
18210;SDS011;9231;48.852;9.882;2022-08-21T17:41:49;1047.70;;;975.67;;
18210;SDS011;9231;48.852;9.882;2022-08-21T17:44:22;1047.30;;;975.40;;
18210;SDS011;9231;48.852;9.882;2022-08-21T17:46:48;1041.40;;;970.00;;
18210;SDS011;9231;48.852;9.882;2022-08-21T17:49:27;1046.87;;;974.60;;
18210;SDS011;9231;48.852;9.882;2022-08-21T17:51:53;1052.73;;;979.87;;
18210;SDS011;9231;48.852;9.882;2022-08-21T17:54:19;1043.40;;;971.70;;
18210;SDS011;9231;48.852;9.882;2022-08-21T17:56:46;1032.63;;;961.27;;
18210;SDS011;9231;48.852;9.882;2022-08-21T17:59:12;1026.00;;;954.93;;
18210;SDS011;9231;48.852;9.882;2022-08-21T18:01:41;1030.20;;;959.10;;
18210;SDS011;9231;48.852;9.882;2022-08-21T18:04:07;1029.90;;;958.47;;
18210;SDS011;9231;48.852;9.882;2022-08-21T18:06:35;1021.10;;;950.20;;
18210;SDS011;9231;48.852;9.882;2022-08-21T18:09:03;1002.13;;;932.93;;
18210;SDS011;9231;48.852;9.882;2022-08-21T18:11:31;1001.63;;;932.20;;
18210;SDS011;9231;48.852;9.882;2022-08-21T18:13:58;989.57;;;921.13;;
18210;SDS011;9231;48.852;9.882;2022-08-21T18:16:26;966.03;;;899.40;;
18210;SDS011;9231;48.852;9.882;2022-08-21T18:18:52;959.17;;;893.23;;
18210;SDS011;9231;48.852;9.882;2022-08-21T18:21:19;969.47;;;902.90;;
18210;SDS011;9231;48.852;9.882;2022-08-21T18:23:47;941.77;;;877.00;;
18210;SDS011;9231;48.852;9.882;2022-08-21T18:26:15;936.53;;;872.17;;
18210;SDS011;9231;48.852;9.882;2022-08-21T18:28:44;942.70;;;878.20;;
18210;SDS011;9231;48.852;9.882;2022-08-21T18:31:11;913.60;;;850.07;;
18210;SDS011;9231;48.852;9.882;2022-08-21T18:33:38;908.87;;;845.67;;
18210;SDS011;9231;48.852;9.882;2022-08-21T18:36:05;900.07;;;837.63;;
18210;SDS011;9231;48.852;9.882;2022-08-21T18:38:32;900.00;;;837.37;;
18210;SDS011;9231;48.852;9.882;2022-08-21T18:41:00;900.70;;;837.57;;
18210;SDS011;9231;48.852;9.882;2022-08-21T18:43:27;887.57;;;825.00;;
18210;SDS011;9231;48.852;9.882;2022-08-21T18:45:53;892.93;;;830.27;;
18210;SDS011;9231;48.852;9.882;2022-08-21T18:48:20;895.27;;;832.50;;
18210;SDS011;9231;48.852;9.882;2022-08-21T18:50:46;896.00;;;832.73;;
18210;SDS011;9231;48.852;9.882;2022-08-21T18:53:13;896.00;;;833.00;;
18210;SDS011;9231;48.852;9.882;2022-08-21T18:55:40;892.23;;;829.10;;
18210;SDS011;9231;48.852;9.882;2022-08-21T18:58:10;874.87;;;812.60;;
18210;SDS011;9231;48.852;9.882;2022-08-21T19:00:38;899.77;;;835.60;;
18210;SDS011;9231;48.852;9.882;2022-08-21T19:03:09;878.60;;;816.07;;
18210;SDS011;9231;48.852;9.882;2022-08-21T19:05:36;888.90;;;825.50;;
18210;SDS011;9231;48.852;9.882;2022-08-21T19:08:03;868.73;;;806.40;;
18210;SDS011;9231;48.852;9.882;2022-08-21T19:10:30;865.27;;;802.90;;
18210;SDS011;9231;48.852;9.882;2022-08-21T19:12:57;863.50;;;801.20;;
18210;SDS011;9231;48.852;9.882;2022-08-21T19:15:26;865.30;;;803.13;;
18210;SDS011;9231;48.852;9.882;2022-08-21T19:17:53;836.03;;;774.97;;
18210;SDS011;9231;48.852;9.882;2022-08-21T19:20:22;816.50;;;756.30;;
18210;SDS011;9231;48.852;9.882;2022-08-21T19:22:49;808.83;;;748.90;;
18210;SDS011;9231;48.852;9.882;2022-08-21T19:25:15;802.83;;;743.03;;
18210;SDS011;9231;48.852;9.882;2022-08-21T19:27:42;776.83;;;717.87;;
18210;SDS011;9231;48.852;9.882;2022-08-21T19:30:08;786.77;;;727.37;;
18210;SDS011;9231;48.852;9.882;2022-08-21T19:32:36;782.40;;;723.00;;
18210;SDS011;9231;48.852;9.882;2022-08-21T19:35:03;784.37;;;725.10;;
18210;SDS011;9231;48.852;9.882;2022-08-21T19:37:31;756.63;;;697.47;;
18210;SDS011;9231;48.852;9.882;2022-08-21T19:39:58;763.97;;;705.07;;
18210;SDS011;9231;48.852;9.882;2022-08-21T19:42:24;779.13;;;719.47;;
18210;SDS011;9231;48.852;9.882;2022-08-21T19:44:51;783.60;;;723.87;;
18210;SDS011;9231;48.852;9.882;2022-08-21T19:47:18;741.67;;;683.60;;
18210;SDS011;9231;48.852;9.882;2022-08-21T19:49:48;753.73;;;695.03;;
18210;SDS011;9231;48.852;9.882;2022-08-21T19:52:14;735.97;;;677.07;;
18210;SDS011;9231;48.852;9.882;2022-08-21T19:54:41;713.60;;;654.97;;
18210;SDS011;9231;48.852;9.882;2022-08-21T19:57:08;729.80;;;671.20;;
18210;SDS011;9231;48.852;9.882;2022-08-21T19:59:35;711.27;;;653.70;;
18210;SDS011;9231;48.852;9.882;2022-08-21T20:02:03;720.20;;;662.27;;
18210;SDS011;9231;48.852;9.882;2022-08-21T20:04:30;725.80;;;667.73;;
18210;SDS011;9231;48.852;9.882;2022-08-21T20:07:04;684.40;;;627.67;;
18210;SDS011;9231;48.852;9.882;2022-08-21T20:09:33;684.17;;;627.77;;
18210;SDS011;9231;48.852;9.882;2022-08-21T20:12:06;670.87;;;614.43;;
18210;SDS011;9231;48.852;9.882;2022-08-21T20:14:34;689.83;;;632.83;;
18210;SDS011;9231;48.852;9.882;2022-08-21T20:17:03;679.23;;;622.43;;
18210;SDS011;9231;48.852;9.882;2022-08-21T20:19:30;652.30;;;596.50;;
18210;SDS011;9231;48.852;9.882;2022-08-21T20:21:56;672.13;;;615.90;;
18210;SDS011;9231;48.852;9.882;2022-08-21T20:24:25;658.33;;;602.33;;
18210;SDS011;9231;48.852;9.882;2022-08-21T20:26:51;672.87;;;616.30;;
18210;SDS011;9231;48.852;9.882;2022-08-21T20:29:18;644.70;;;588.90;;
18210;SDS011;9231;48.852;9.882;2022-08-21T20:31:45;636.30;;;580.77;;
18210;SDS011;9231;48.852;9.882;2022-08-21T20:34:12;613.93;;;559.03;;
18210;SDS011;9231;48.852;9.882;2022-08-21T20:36:38;611.97;;;556.97;;
18210;SDS011;9231;48.852;9.882;2022-08-21T20:39:05;628.03;;;573.37;;
18210;SDS011;9231;48.852;9.882;2022-08-21T20:41:33;622.60;;;567.00;;
18210;SDS011;9231;48.852;9.882;2022-08-21T20:44:00;613.67;;;558.60;;
18210;SDS011;9231;48.852;9.882;2022-08-21T20:46:28;603.40;;;548.80;;
18210;SDS011;9231;48.852;9.882;2022-08-21T20:48:55;599.07;;;544.47;;
18210;SDS011;9231;48.852;9.882;2022-08-21T20:51:23;593.27;;;538.33;;
18210;SDS011;9231;48.852;9.882;2022-08-21T20:53:53;580.17;;;525.80;;
18210;SDS011;9231;48.852;9.882;2022-08-21T20:56:28;570.93;;;516.93;;
18210;SDS011;9231;48.852;9.882;2022-08-21T20:58:56;558.27;;;505.10;;
18210;SDS011;9231;48.852;9.882;2022-08-21T21:01:25;575.50;;;521.23;;
18210;SDS011;9231;48.852;9.882;2022-08-21T21:03:57;586.57;;;531.90;;
18210;SDS011;9231;48.852;9.882;2022-08-21T21:06:27;555.43;;;501.50;;
18210;SDS011;9231;48.852;9.882;2022-08-21T21:08:55;552.27;;;498.47;;
18210;SDS011;9231;48.852;9.882;2022-08-21T21:11:24;563.37;;;509.50;;
18210;SDS011;9231;48.852;9.882;2022-08-21T21:13:52;530.20;;;477.13;;
18210;SDS011;9231;48.852;9.882;2022-08-21T21:16:26;531.23;;;478.13;;
18210;SDS011;9231;48.852;9.882;2022-08-21T21:18:57;536.63;;;483.43;;
18210;SDS011;9231;48.852;9.882;2022-08-21T21:21:26;528.57;;;475.10;;
18210;SDS011;9231;48.852;9.882;2022-08-21T21:23:55;559.17;;;505.30;;
18210;SDS011;9231;48.852;9.882;2022-08-21T21:26:25;527.53;;;474.37;;
18210;SDS011;9231;48.852;9.882;2022-08-21T21:28:59;518.40;;;465.67;;
18210;SDS011;9231;48.852;9.882;2022-08-21T21:31:28;524.90;;;471.93;;
18210;SDS011;9231;48.852;9.882;2022-08-21T21:33:55;532.30;;;479.07;;
18210;SDS011;9231;48.852;9.882;2022-08-21T21:36:24;511.23;;;458.17;;
18210;SDS011;9231;48.852;9.882;2022-08-21T21:38:56;513.70;;;460.97;;
18210;SDS011;9231;48.852;9.882;2022-08-21T21:41:28;524.03;;;470.60;;
18210;SDS011;9231;48.852;9.882;2022-08-21T21:44:04;490.83;;;438.50;;
18210;SDS011;9231;48.852;9.882;2022-08-21T21:46:44;505.87;;;453.40;;
18210;SDS011;9231;48.852;9.882;2022-08-21T21:49:19;503.97;;;451.37;;
18210;SDS011;9231;48.852;9.882;2022-08-21T21:52:02;486.93;;;434.87;;
18210;SDS011;9231;48.852;9.882;2022-08-21T21:54:36;502.97;;;451.03;;
18210;SDS011;9231;48.852;9.882;2022-08-21T21:57:14;506.23;;;453.57;;
18210;SDS011;9231;48.852;9.882;2022-08-21T21:59:49;499.67;;;447.20;;
18210;SDS011;9231;48.852;9.882;2022-08-21T22:02:27;489.80;;;437.40;;
18210;SDS011;9231;48.852;9.882;2022-08-21T22:05:01;496.63;;;444.13;;
18210;SDS011;9231;48.852;9.882;2022-08-21T22:07:31;467.97;;;416.27;;
18210;SDS011;9231;48.852;9.882;2022-08-21T22:10:00;492.80;;;440.53;;
18210;SDS011;9231;48.852;9.882;2022-08-21T22:12:30;460.43;;;409.20;;
18210;SDS011;9231;48.852;9.882;2022-08-21T22:15:00;493.50;;;441.67;;
18210;SDS011;9231;48.852;9.882;2022-08-21T22:17:31;492.47;;;440.10;;
18210;SDS011;9231;48.852;9.882;2022-08-21T22:20:18;467.50;;;402.00;;
18210;SDS011;9231;48.852;9.882;2022-08-21T22:22:47;468.13;;;411.00;;
18210;SDS011;9231;48.852;9.882;2022-08-21T22:25:15;459.50;;;398.23;;
18210;SDS011;9231;48.852;9.882;2022-08-21T22:27:42;466.13;;;408.17;;
18210;SDS011;9231;48.852;9.882;2022-08-21T22:30:12;468.40;;;415.07;;
18210;SDS011;9231;48.852;9.882;2022-08-21T22:32:43;463.77;;;392.47;;
18210;SDS011;9231;48.852;9.882;2022-08-21T22:35:13;462.13;;;389.87;;
18210;SDS011;9231;48.852;9.882;2022-08-21T22:37:41;459.77;;;386.87;;
18210;SDS011;9231;48.852;9.882;2022-08-21T22:40:10;457.27;;;389.53;;
18210;SDS011;9231;48.852;9.882;2022-08-21T22:42:37;461.73;;;392.70;;
18210;SDS011;9231;48.852;9.882;2022-08-21T22:45:05;457.90;;;380.87;;
18210;SDS011;9231;48.852;9.882;2022-08-21T22:47:33;465.63;;;387.97;;